Time;durP1;ratioP1;P1;durP2;ratioP2;P2;SDS_P1;SDS_P2;PMS_P1;PMS_P2;Temp;Humidity;BMP_temperature;BMP_pressure;BME280_temperature;BME280_humidity;BME280_pressure;Samples;Min_cycle;Max_cycle;Signal;HPM_P1;HPM_P2
2021/08/20 09:57:30;;;;;;;14.60;3.60;;;;;;;24.81;44.00;97564.59;114708;1197;597244;-59
2021/08/20 09:59:58;;;;;;;32.60;6.30;;;;;;;24.95;43.93;97566.79;115920;1188;57462;-58
2021/08/20 10:02:27;;;;;;;9.00;3.40;;;;;;;25.12;43.65;97565.60;115748;1188;57495;-58
2021/08/20 10:04:55;;;;;;;7.10;3.10;;;;;;;25.29;43.25;97564.34;115881;1188;68246;-57
2021/08/20 10:07:26;;;;;;;8.90;3.00;;;;;;;25.43;43.05;97566.13;115783;1188;69194;-58
2021/08/20 10:09:54;;;;;;;4.80;3.00;;;;;;;25.58;42.65;97556.84;116013;1188;68528;-63
2021/08/20 10:12:23;;;;;;;6.70;2.80;;;;;;;25.70;42.61;97552.27;115633;1187;94360;-60
2021/08/20 10:14:51;;;;;;;7.10;3.30;;;;;;;25.82;42.56;97551.05;115682;1190;57592;-61
2021/08/20 10:17:52;;;;;;;6.40;3.50;;;;;;;25.97;42.29;97551.00;114354;1197;597242;-59
2021/08/20 10:20:23;;;;;;;13.90;3.30;;;;;;;26.05;42.03;97550.98;115879;1184;57475;-59
2021/08/20 10:22:53;;;;;;;7.80;3.20;;;;;;;26.12;41.90;97545.73;115930;1188;57473;-61
2021/08/20 10:25:22;;;;;;;;;;;;;;;26.20;41.87;97542.42;115956;1185;68754;-59
2021/08/20 10:27:53;;;;;;;7.60;3.00;;;;;;;26.26;41.70;97538.48;115933;1185;69194;-60
2021/08/20 10:30:23;;;;;;;11.70;3.20;;;;;;;26.32;41.79;97535.83;115976;1185;69239;-65
2021/08/20 10:33:06;;;;;;;6.70;3.00;;;;;;;26.37;41.79;97541.22;115876;1185;57491;-60
2021/08/20 10:35:55;;;;;;;20.30;4.30;;;;;;;26.43;41.65;97534.83;115993;1188;57453;-59
2021/08/20 10:38:34;;;;;;;8.90;3.40;;;;;;;26.48;41.16;97533.79;115928;1188;68908;-59
2021/08/20 10:41:17;;;;;;;7.40;2.90;;;;;;;26.52;41.24;97535.62;115965;1188;69140;-59
2021/08/20 10:44:04;;;;;;;4.50;2.70;;;;;;;26.56;41.15;97536.40;115928;1188;68937;-62
2021/08/20 10:46:33;;;;;;;15.40;3.30;;;;;;;26.60;41.14;97533.86;115891;1188;57876;-63
2021/08/20 10:49:21;;;;;;;;;;;;;;;26.63;40.91;97531.63;116018;1184;57943;-64
2021/08/20 10:51:56;;;;;;;9.20;3.00;;;;;;;26.65;40.77;97535.61;115899;1188;68951;-59
2021/08/20 10:54:31;;;;;;;5.20;3.00;;;;;;;26.65;40.73;97530.80;115977;1188;68499;-60
2021/08/20 10:57:02;;;;;;;6.30;3.10;;;;;;;26.65;40.32;97526.15;115981;1188;68218;-60
2021/08/20 11:05:36;;;;;;;7.10;3.90;;;;;;;27.67;30.72;97490.33;114190;1198;596273;-72
2021/08/20 11:08:27;;;;;;;6.10;3.60;;;;;;;28.59;29.24;97488.07;115771;1186;57502;-74
2021/08/20 11:10:59;;;;;;;5.30;3.60;;;;;;;29.17;28.11;97479.15;115835;1184;57572;-72
2021/08/20 11:13:29;;;;;;;6.30;3.30;;;;;;;29.63;28.00;97483.96;115834;1188;68947;-74
2021/08/20 11:16:01;;;;;;;6.10;3.80;;;;;;;29.64;27.05;97484.48;115523;1188;102781;-75
2021/08/20 11:19:44;;;;;;;5.70;3.40;;;;;;;30.05;27.00;97476.55;114421;1197;597536;-78
2021/08/20 11:22:18;;;;;;;4.80;3.30;;;;;;;30.47;27.40;97470.68;115711;1185;57506;-77
2021/08/20 11:25:08;;;;;;;6.00;3.50;;;;;;;30.63;26.89;97465.28;115627;1190;57489;-75
2021/08/20 11:27:55;;;;;;;6.20;3.80;;;;;;;30.83;26.52;97463.61;115721;1185;68851;-74
2021/08/20 11:30:32;;;;;;;6.20;3.40;;;;;;;31.32;24.95;97465.02;115775;1190;69253;-77
2021/08/20 11:33:13;;;;;;;7.00;3.70;;;;;;;31.27;24.22;97463.85;115780;1185;69256;-74
2021/08/20 11:35:46;;;;;;;6.70;3.80;;;;;;;31.31;24.75;97461.76;115708;1186;57514;-76
2021/08/20 11:38:27;;;;;;;7.70;4.10;;;;;;;30.56;24.53;97462.20;115703;1189;57528;-74
2021/08/20 11:41:05;;;;;;;10.60;4.10;;;;;;;29.78;25.19;97457.83;115678;1189;68774;-72
2021/08/20 11:43:58;;;;;;;7.50;4.40;;;;;;;30.08;26.23;97452.27;115669;1188;69337;-74
2021/08/20 11:46:40;;;;;;;8.20;4.20;;;;;;;30.49;25.58;97449.81;115716;1188;69015;-77
2021/08/20 11:49:22;;;;;;;7.90;4.20;;;;;;;30.53;25.09;97442.80;115680;1189;57947;-74
2021/08/20 11:51:51;;;;;;;7.60;5.00;;;;;;;30.49;25.09;97443.72;115725;1186;57875;-74
2021/08/20 11:54:34;;;;;;;7.10;4.10;;;;;;;30.47;24.53;97443.58;115733;1185;69770;-73
2021/08/20 11:57:03;;;;;;;10.10;4.70;;;;;;;30.54;24.28;97438.33;115712;1189;68997;-75
2021/08/20 11:59:32;;;;;;;8.00;3.80;;;;;;;30.29;24.61;97440.30;115687;1190;69350;-74
2021/08/20 12:02:01;;;;;;;5.80;3.70;;;;;;;30.38;25.93;97431.98;115700;1186;57956;-74
2021/08/20 12:04:37;;;;;;;8.90;4.70;;;;;;;30.49;27.53;97431.30;115683;1189;57911;-75
2021/08/20 12:07:07;;;;;;;8.50;4.50;;;;;;;30.60;26.28;97425.71;115629;1185;69681;-75
2021/08/20 12:09:36;;;;;;;7.70;3.70;;;;;;;30.52;24.60;97421.23;115344;1190;107087;-75
2021/08/20 12:12:11;;;;;;;8.10;4.30;;;;;;;30.68;25.15;97423.02;115422;1190;68263;-74
2021/08/20 12:14:54;;;;;;;6.80;3.80;;;;;;;30.50;25.72;97417.77;116080;1186;57939;-74
2021/08/20 12:19:51;;;;;;;8.60;5.00;;;;;;;30.11;25.78;97422.06;113731;1199;597271;-77
2021/08/20 12:22:21;;;;;;;8.00;4.80;;;;;;;29.81;26.48;97421.51;115771;1185;57461;-74
2021/08/20 12:24:52;;;;;;;9.20;5.20;;;;;;;29.77;26.87;97418.41;115805;1186;57492;-76
2021/08/20 12:27:25;;;;;;;8.70;5.40;;;;;;;29.83;27.49;97416.24;115808;1188;67871;-74
2021/08/20 12:29:57;;;;;;;11.10;6.00;;;;;;;29.49;26.25;97416.63;115782;1188;68397;-76
2021/08/20 12:32:30;;;;;;;9.00;5.00;;;;;;;29.39;25.87;97411.62;115807;1182;69629;-78
2021/08/20 12:35:34;;;;;;;8.50;5.10;;;;;;;29.40;26.87;97415.09;115902;1185;57470;-77
2021/08/20 12:38:17;;;;;;;10.10;4.50;;;;;;;29.58;28.07;97411.80;115571;1188;57633;-74
2021/08/20 12:40:55;;;;;;;9.30;4.10;;;;;;;29.74;27.85;97410.04;115461;1189;69043;-75
2021/08/20 12:43:35;;;;;;;7.70;4.30;;;;;;;29.75;27.22;97409.70;115589;1191;68359;-72
2021/08/20 12:46:19;;;;;;;9.40;4.80;;;;;;;29.78;27.13;97403.98;115568;1186;68778;-76
2021/08/20 12:48:55;;;;;;;13.10;5.10;;;;;;;29.64;26.48;97400.13;115737;1189;58001;-76
2021/08/20 12:51:24;;;;;;;8.50;4.60;;;;;;;29.49;25.78;97399.47;115529;1191;57911;-76
2021/08/20 12:54:12;;;;;;;11.50;4.40;;;;;;;29.33;27.30;97398.30;115553;1188;68942;-75
2021/08/20 12:56:47;;;;;;;8.60;4.70;;;;;;;29.28;26.81;97395.20;115522;1190;68451;-76
2021/08/20 12:59:18;;;;;;;9.10;4.80;;;;;;;29.16;27.54;97397.95;115447;1191;69232;-75
2021/08/20 13:01:51;;;;;;;7.80;4.60;;;;;;;29.07;28.12;97394.86;115562;1187;57945;-78
2021/08/20 13:04:21;;;;;;;8.20;4.20;;;;;;;28.99;26.89;97392.33;115547;1189;58485;-75
2021/08/20 13:06:51;;;;;;;10.00;4.40;;;;;;;28.95;26.20;97388.73;115451;1191;68930;-76
2021/08/20 13:09:22;;;;;;;7.70;4.10;;;;;;;29.26;27.78;97387.73;115565;1191;68409;-74
2021/08/20 13:11:56;;;;;;;6.50;4.00;;;;;;;29.31;28.21;97382.64;115563;1187;69481;-77
2021/08/20 13:14:32;;;;;;;7.80;3.80;;;;;;;29.38;26.87;97377.17;115722;1188;57921;-77
2021/08/20 13:17:06;;;;;;;7.20;3.90;;;;;;;28.99;27.15;97378.13;115955;1187;57972;-76
2021/08/20 13:19:36;;;;;;;7.00;3.30;;;;;;;28.81;29.53;97376.21;115953;1185;68984;-81
2021/08/20 13:22:08;;;;;;;7.40;3.60;;;;;;;28.99;28.58;97376.00;115965;1186;68594;-77
2021/08/20 13:24:39;;;;;;;8.20;3.50;;;;;;;29.13;29.16;97375.49;116098;1185;69230;-77
2021/08/20 13:27:10;;;;;;;8.20;3.90;;;;;;;29.25;28.89;97378.73;116041;1185;57981;-78
2021/08/20 13:29:41;;;;;;;6.90;4.10;;;;;;;29.32;28.16;97377.79;116076;1181;57945;-78
2021/08/20 13:32:12;;;;;;;5.70;3.80;;;;;;;29.20;26.91;97376.40;116027;1186;69539;-78
2021/08/20 13:34:43;;;;;;;6.20;3.40;;;;;;;29.09;28.96;97380.80;116085;1183;68508;-78
2021/08/20 13:37:13;;;;;;;6.50;2.90;;;;;;;28.86;29.91;97383.27;116017;1185;68399;-76
2021/08/20 13:39:43;;;;;;;7.90;3.60;;;;;;;28.91;29.20;97379.64;116150;1185;57936;-73
2021/08/20 13:42:15;;;;;;;6.10;3.10;;;;;;;29.06;28.90;97383.48;115999;1185;57895;-73
2021/08/20 13:44:46;;;;;;;6.50;3.60;;;;;;;28.97;28.34;97382.95;116088;1185;68956;-75
2021/08/20 13:47:20;;;;;;;6.40;3.20;;;;;;;29.19;28.63;97383.09;116069;1182;68988;-78
2021/08/20 13:49:53;;;;;;;6.30;3.50;;;;;;;29.11;27.89;97382.09;116017;1185;68408;-75
2021/08/20 13:52:28;;;;;;;6.50;3.00;;;;;;;29.18;27.59;97382.07;115995;1181;58013;-78
2021/08/20 13:55:04;;;;;;;5.70;3.00;;;;;;;29.13;28.13;97385.90;115988;1185;57930;-78
2021/08/20 13:57:34;;;;;;;5.50;3.50;;;;;;;28.97;28.32;97380.03;116067;1185;69701;-77
2021/08/20 14:00:06;;;;;;;10.80;4.80;;;;;;;28.74;27.83;97381.64;116042;1183;68730;-74
2021/08/20 14:02:36;;;;;;;5.30;3.10;;;;;;;28.16;28.65;97377.34;116017;1187;69142;-74
2021/08/20 14:05:07;;;;;;;6.30;3.60;;;;;;;28.01;29.51;97384.89;116045;1185;57907;-71
2021/08/20 14:07:38;;;;;;;5.70;3.40;;;;;;;28.25;28.48;97384.77;116048;1183;57927;-73
2021/08/20 14:10:09;;;;;;;5.40;3.20;;;;;;;28.25;27.58;97385.33;115982;1181;68888;-74
2021/08/20 14:12:39;;;;;;;6.40;3.70;;;;;;;28.03;27.46;97386.50;116060;1182;68969;-73
2021/08/20 14:15:09;;;;;;;5.40;3.70;;;;;;;27.89;28.74;97384.34;115926;1185;68547;-73
2021/08/20 14:17:38;;;;;;;6.90;4.00;;;;;;;27.73;28.83;97378.20;116151;1182;57908;-74
2021/08/20 14:20:09;;;;;;;7.10;3.90;;;;;;;27.64;28.93;97379.33;115972;1185;58382;-73
2021/08/20 14:22:41;;;;;;;7.70;3.70;;;;;;;27.53;29.06;97377.69;115991;1182;68818;-73
2021/08/20 14:25:11;;;;;;;9.30;3.80;;;;;;;27.53;29.19;97375.48;116094;1185;68419;-74
2021/08/20 14:27:42;;;;;;;8.10;3.90;;;;;;;27.51;29.06;97372.25;115963;1181;67612;-73
2021/08/20 14:30:13;;;;;;;6.30;3.60;;;;;;;27.49;29.29;97367.73;116061;1185;57934;-73
2021/08/20 14:32:44;;;;;;;8.80;3.70;;;;;;;27.38;29.85;97367.08;116131;1182;57915;-73
2021/08/20 14:35:15;;;;;;;6.30;3.60;;;;;;;27.25;29.86;97366.89;116072;1181;69861;-73
2021/08/20 14:37:46;;;;;;;7.80;3.40;;;;;;;26.96;30.24;97361.50;116058;1185;69248;-73
2021/08/20 14:40:17;;;;;;;6.70;3.80;;;;;;;26.93;30.75;97362.45;116050;1185;68687;-73
2021/08/20 14:42:49;;;;;;;7.00;3.60;;;;;;;26.91;31.01;97360.37;116001;1182;57898;-74
2021/08/20 14:45:28;;;;;;;5.10;3.30;;;;;;;26.73;31.22;97355.88;116021;1185;57863;-74
2021/08/20 14:47:57;;;;;;;5.30;3.60;;;;;;;26.63;31.54;97360.48;116033;1185;69705;-73
2021/08/20 14:50:27;;;;;;;8.60;3.50;;;;;;;26.55;31.56;97355.73;115996;1181;68989;-73
2021/08/20 14:52:56;;;;;;;7.10;3.70;;;;;;;26.50;31.53;97355.70;116064;1185;67869;-73
2021/08/20 14:55:27;;;;;;;6.50;3.70;;;;;;;26.39;31.58;97359.04;116017;1182;57962;-73
2021/08/20 14:57:58;;;;;;;10.10;3.80;;;;;;;26.36;31.51;97359.09;115987;1184;57890;-73
2021/08/20 15:00:33;;;;;;;8.80;3.50;;;;;;;26.38;31.49;97359.27;116013;1185;69134;-73
2021/08/20 15:03:06;;;;;;;8.90;3.60;;;;;;;26.44;31.51;97357.09;115987;1185;68963;-72
2021/08/20 15:05:37;;;;;;;6.00;3.50;;;;;;;26.45;31.62;97353.54;115942;1183;69142;-73
2021/08/20 15:08:07;;;;;;;7.10;4.10;;;;;;;26.53;32.37;97355.77;116034;1185;57951;-74
2021/08/20 15:10:38;;;;;;;11.00;3.70;;;;;;;26.52;32.06;97352.59;116003;1182;58019;-73
2021/08/20 15:13:10;;;;;;;6.00;3.80;;;;;;;26.47;32.63;97360.86;116108;1185;68867;-73
2021/08/20 15:15:45;;;;;;;5.50;3.40;;;;;;;26.45;33.54;97359.17;116029;1181;68498;-73
2021/08/20 15:18:15;;;;;;;8.40;3.90;;;;;;;26.40;32.15;97355.15;115962;1185;67908;-73
2021/08/20 15:20:46;;;;;;;5.80;3.10;;;;;;;26.24;33.25;97362.59;115923;1183;58346;-73
2021/08/20 15:23:16;;;;;;;10.60;3.50;;;;;;;26.14;32.92;97363.02;116031;1181;57857;-73
2021/08/20 15:25:47;;;;;;;8.80;3.60;;;;;;;26.19;33.27;97365.63;115866;1184;69632;-73
2021/08/20 15:28:19;;;;;;;8.20;3.40;;;;;;;26.24;33.09;97367.34;116023;1182;68428;-73
2021/08/20 15:30:57;;;;;;;6.80;3.30;;;;;;;26.24;32.49;97364.31;115974;1182;69216;-72
2021/08/20 15:33:30;;;;;;;7.20;3.50;;;;;;;26.07;32.09;97359.90;116000;1182;57930;-72
2021/08/20 15:36:02;;;;;;;8.50;3.70;;;;;;;25.99;33.07;97359.18;116041;1185;57933;-72
2021/08/20 15:38:32;;;;;;;6.50;3.80;;;;;;;25.95;32.93;97356.96;116051;1184;69740;-72
2021/08/20 15:41:09;;;;;;;6.00;3.30;;;;;;;25.90;31.96;97355.36;115962;1187;68419;-72
2021/08/20 15:43:39;;;;;;;6.10;3.10;;;;;;;25.76;32.45;97354.10;115917;1187;69069;-73
2021/08/20 15:46:09;;;;;;;7.10;4.20;;;;;;;25.70;32.75;97354.52;115936;1182;57950;-72
2021/08/20 15:48:40;;;;;;;5.10;3.70;;;;;;;25.69;33.34;97358.14;115955;1187;57924;-72
2021/08/20 15:51:11;;;;;;;7.60;3.90;;;;;;;25.66;34.72;97362.36;115935;1186;69280;-71
2021/08/20 15:53:43;;;;;;;8.70;5.70;;;;;;;25.62;33.15;97359.68;115961;1182;69146;-71
2021/08/20 15:56:18;;;;;;;9.70;4.90;;;;;;;25.53;34.04;97362.45;115845;1186;69245;-72
2021/08/20 15:58:49;;;;;;;7.20;4.40;;;;;;;25.48;33.84;97364.98;115947;1185;57937;-72
2021/08/20 16:01:19;;;;;;;7.90;3.80;;;;;;;25.50;33.56;97365.33;115947;1185;57989;-72
2021/08/20 16:03:50;;;;;;;6.60;3.30;;;;;;;25.42;33.14;97363.61;115959;1185;69244;-72
2021/08/20 16:06:20;;;;;;;8.90;3.70;;;;;;;25.36;33.45;97366.40;115928;1182;67471;-72
2021/08/20 16:08:51;;;;;;;5.90;3.30;;;;;;;25.33;33.53;97366.09;115995;1182;69071;-72
2021/08/20 16:11:21;;;;;;;6.30;3.30;;;;;;;25.28;35.28;97368.18;116021;1184;57924;-73
2021/08/20 16:13:52;;;;;;;6.10;3.10;;;;;;;25.17;39.30;97371.22;115990;1185;57930;-72
2021/08/20 16:16:23;;;;;;;6.10;3.10;;;;;;;24.96;39.66;97376.24;116015;1182;69303;-72
2021/08/20 16:18:54;;;;;;;5.90;3.40;;;;;;;24.85;39.36;97376.23;116014;1182;68403;-72
2021/08/20 16:21:25;;;;;;;8.20;3.40;;;;;;;24.81;39.25;97380.01;116032;1183;68351;-78
2021/08/20 16:23:56;;;;;;;5.30;3.10;;;;;;;24.75;39.26;97381.55;115956;1181;57860;-73
2021/08/20 16:26:27;;;;;;;7.30;3.40;;;;;;;24.61;39.78;97378.73;115950;1185;57943;-72
2021/08/20 16:28:58;;;;;;;4.90;3.10;;;;;;;24.43;40.33;97378.71;116025;1185;69735;-73
2021/08/20 16:31:28;;;;;;;8.60;3.40;;;;;;;24.33;40.30;97378.74;115960;1182;68424;-71
2021/08/20 16:33:59;;;;;;;5.90;3.60;;;;;;;24.23;40.61;97383.64;115967;1181;69257;-71
2021/08/20 16:36:31;;;;;;;4.60;3.20;;;;;;;24.09;41.18;97379.30;116068;1185;58756;-73
2021/08/20 16:39:01;;;;;;;6.00;3.60;;;;;;;23.97;41.37;97380.46;116021;1182;58747;-72
2021/08/20 16:41:32;;;;;;;5.50;3.00;;;;;;;23.73;42.22;97381.88;116017;1185;69757;-72
2021/08/20 16:44:03;;;;;;;8.90;3.30;;;;;;;23.46;41.82;97388.55;116013;1185;69279;-73
2021/08/20 16:46:33;;;;;;;7.60;3.40;;;;;;;23.29;42.77;97387.02;115932;1185;67451;-72
2021/08/20 16:49:03;;;;;;;7.00;3.50;;;;;;;23.13;42.97;97390.19;116060;1182;58752;-73
2021/08/20 16:51:33;;;;;;;5.90;3.20;;;;;;;22.85;43.71;97385.78;115999;1185;58724;-73
2021/08/20 16:54:03;;;;;;;8.60;3.70;;;;;;;22.68;43.60;97386.39;115929;1185;69576;-73
2021/08/20 16:56:35;;;;;;;5.40;3.50;;;;;;;22.50;43.69;97389.13;116120;1185;68227;-72
2021/08/20 16:59:05;;;;;;;5.80;3.30;;;;;;;22.30;44.35;97387.48;115986;1185;69232;-73
2021/08/20 17:01:36;;;;;;;7.80;3.40;;;;;;;22.14;44.19;97391.38;116007;1185;58733;-73
2021/08/20 17:04:07;;;;;;;5.40;3.30;;;;;;;21.96;45.51;97389.92;115993;1181;58746;-71
2021/08/20 17:06:38;;;;;;;9.40;3.40;;;;;;;21.81;45.66;97390.59;115937;1181;70362;-73
2021/08/20 17:09:08;;;;;;;8.50;3.70;;;;;;;21.62;46.42;97392.91;115975;1185;68401;-73
2021/08/20 17:11:39;;;;;;;8.60;3.60;;;;;;;21.49;45.93;97392.05;116046;1182;69208;-72
2021/08/20 17:14:10;;;;;;;5.10;3.20;;;;;;;21.33;46.30;97390.19;116011;1185;58699;-74
2021/08/20 17:16:40;;;;;;;6.60;3.70;;;;;;;21.17;46.12;97394.17;115956;1181;58723;-72
2021/08/20 17:19:11;;;;;;;9.60;3.60;;;;;;;21.02;46.12;97396.43;115920;1182;70225;-74
2021/08/20 17:21:42;;;;;;;6.90;3.40;;;;;;;20.86;47.19;97400.67;115910;1182;68525;-73
2021/08/20 17:24:12;;;;;;;7.50;3.80;;;;;;;20.76;47.33;97402.30;115776;1185;68751;-73
2021/08/20 17:26:43;;;;;;;9.80;5.40;;;;;;;20.60;48.60;97406.32;115974;1183;58737;-73
2021/08/20 17:29:14;;;;;;;8.90;4.50;;;;;;;20.48;51.18;97407.52;115898;1185;58815;-74
2021/08/20 17:31:46;;;;;;;9.60;5.50;;;;;;;20.42;51.53;97411.16;115962;1182;70099;-74
2021/08/20 17:34:17;;;;;;;12.20;5.50;;;;;;;20.39;52.63;97411.45;115885;1187;68409;-74
2021/08/20 17:36:48;;;;;;;7.30;4.80;;;;;;;20.32;51.98;97418.59;115873;1184;68423;-73
2021/08/20 17:39:19;;;;;;;8.60;4.40;;;;;;;20.21;51.75;97415.33;115940;1185;58776;-73
2021/08/20 17:41:50;;;;;;;11.20;4.90;;;;;;;20.10;52.83;97420.80;115956;1182;58787;-73
2021/08/20 17:44:20;;;;;;;12.80;5.10;;;;;;;20.00;54.27;97423.08;116098;1182;69941;-73
2021/08/20 17:46:51;;;;;;;8.40;5.00;;;;;;;19.87;53.74;97425.45;115991;1185;68679;-73
2021/08/20 17:49:21;;;;;;;9.10;5.30;;;;;;;19.76;52.89;97429.64;115988;1185;69401;-73
2021/08/20 17:51:52;;;;;;;10.70;5.10;;;;;;;19.64;54.39;97429.88;115983;1181;58750;-73
2021/08/20 17:54:22;;;;;;;9.40;5.20;;;;;;;19.57;55.30;97427.34;115970;1181;58727;-73
2021/08/20 17:56:53;;;;;;;16.10;7.10;;;;;;;19.47;54.64;97430.15;115920;1185;71180;-73
2021/08/20 17:59:24;;;;;;;16.20;6.70;;;;;;;19.31;58.07;97430.89;115940;1185;68959;-72
2021/08/20 18:01:56;;;;;;;15.40;7.90;;;;;;;19.21;58.97;97433.38;115989;1185;68469;-72
2021/08/20 18:04:26;;;;;;;21.90;7.00;;;;;;;19.14;58.54;97433.92;115874;1186;58765;-72
2021/08/20 18:06:57;;;;;;;11.50;5.70;;;;;;;19.05;58.92;97435.45;115999;1185;58640;-72
2021/08/20 18:09:27;;;;;;;11.70;5.70;;;;;;;18.94;58.87;97439.48;115986;1185;70528;-73
2021/08/20 18:12:05;;;;;;;8.30;4.60;;;;;;;18.85;58.80;97444.65;115992;1182;69148;-73
2021/08/20 18:14:38;;;;;;;14.40;5.60;;;;;;;18.72;60.07;97442.48;116014;1181;69300;-73
2021/08/20 18:17:13;;;;;;;20.80;11.00;;;;;;;18.62;62.11;97444.96;115931;1185;59215;-73
2021/08/20 18:19:43;;;;;;;9.80;6.10;;;;;;;18.53;61.53;97450.17;115862;1182;58724;-73
2021/08/20 18:22:14;;;;;;;11.70;6.60;;;;;;;18.45;60.31;97446.70;116152;1184;70440;-73
2021/08/20 18:24:45;;;;;;;12.00;5.90;;;;;;;18.33;60.60;97447.75;116216;1184;68583;-73
2021/08/20 18:27:16;;;;;;;11.30;6.00;;;;;;;18.21;59.55;97447.70;116177;1181;69461;-74
2021/08/20 18:29:47;;;;;;;;;;;;;;;18.05;60.77;97447.36;116088;1181;58778;-72
2021/08/20 18:32:17;;;;;;;10.90;5.90;;;;;;;17.93;61.84;97449.75;116174;1184;58730;-72
2021/08/20 18:34:47;;;;;;;;;;;;;;;17.86;62.34;97457.35;116198;1185;71076;-73
2021/08/20 18:37:18;;;;;;;11.30;5.80;;;;;;;17.76;61.80;97460.78;116195;1184;69250;-73
2021/08/20 18:39:48;;;;;;;14.30;5.70;;;;;;;17.65;64.48;97468.64;116217;1181;68408;-73
2021/08/20 18:42:18;;;;;;;;;;;;;;;17.57;64.54;97465.05;116191;1179;58721;-73
2021/08/20 18:44:50;;;;;;;16.10;6.50;;;;;;;17.51;64.82;97467.25;116139;1182;58685;-74
2021/08/20 18:47:20;;;;;;;12.50;6.40;;;;;;;17.51;64.86;97466.39;116225;1181;69646;-74
2021/08/20 18:49:50;;;;;;;;;;;;;;;17.45;64.19;97465.81;116162;1182;69202;-73
2021/08/20 18:52:24;;;;;;;14.50;8.00;;;;;;;17.41;65.37;97468.71;116118;1184;69234;-71
2021/08/20 18:54:58;;;;;;;15.90;8.60;;;;;;;17.36;63.90;97468.90;116022;1184;58768;-72
2021/08/20 18:57:28;;;;;;;;;;;;;;;17.26;64.18;97469.52;116226;1184;58729;-73
2021/08/20 18:59:59;;;;;;;12.90;8.80;;;;;;;17.16;64.37;97471.89;116080;1182;70086;-71
2021/08/20 19:02:29;;;;;;;;;;;;;;;17.05;65.59;97472.73;116233;1181;68270;-75
2021/08/20 19:04:59;;;;;;;14.80;8.10;;;;;;;16.98;65.77;97472.70;116184;1181;68280;-73
2021/08/20 19:07:29;;;;;;;17.50;8.20;;;;;;;16.90;64.45;97476.64;116206;1185;59681;-73
2021/08/20 19:10:00;;;;;;;12.90;7.30;;;;;;;16.79;64.62;97476.39;116140;1182;59175;-74
2021/08/20 19:12:33;;;;;;;12.30;7.80;;;;;;;16.68;65.10;97477.85;116140;1184;69722;-74
2021/08/20 19:15:09;;;;;;;12.90;7.00;;;;;;;16.56;65.31;97478.59;116211;1181;69103;-74
2021/08/20 19:17:40;;;;;;;10.70;7.20;;;;;;;16.45;65.67;97482.08;116216;1184;69244;-74
2021/08/20 19:20:11;;;;;;;15.50;8.40;;;;;;;16.33;66.11;97482.92;116108;1184;58711;-74
2021/08/20 19:22:42;;;;;;;15.10;6.80;;;;;;;16.23;66.46;97481.55;116172;1180;58739;-73
2021/08/20 19:25:12;;;;;;;10.90;7.20;;;;;;;16.13;66.64;97480.21;116209;1184;70601;-73
2021/08/20 19:27:43;;;;;;;13.50;6.80;;;;;;;16.07;68.65;97482.58;116189;1181;68242;-74
2021/08/20 19:30:13;;;;;;;11.40;6.60;;;;;;;16.03;68.55;97486.22;116083;1182;68543;-74
2021/08/20 19:32:46;;;;;;;12.90;7.20;;;;;;;15.97;67.70;97486.09;116204;1182;58729;-73
2021/08/20 19:35:20;;;;;;;13.40;6.70;;;;;;;15.89;67.23;97487.02;116204;1183;58746;-73
2021/08/20 19:37:51;;;;;;;11.40;7.20;;;;;;;15.77;69.34;97489.89;116173;1184;69736;-73
2021/08/20 19:40:23;;;;;;;12.50;7.30;;;;;;;15.72;69.09;97488.06;116189;1184;68504;-73
2021/08/20 19:42:55;;;;;;;13.70;7.20;;;;;;;15.65;67.92;97487.31;116143;1181;68289;-74
2021/08/20 19:45:26;;;;;;;11.20;6.90;;;;;;;15.57;68.68;97488.77;116076;1181;58800;-74
2021/08/20 19:47:57;;;;;;;16.00;7.30;;;;;;;15.54;68.44;97489.73;116163;1181;58738;-74
2021/08/20 19:50:27;;;;;;;11.20;7.70;;;;;;;15.48;68.47;97489.31;116102;1184;70092;-73
2021/08/20 19:52:57;;;;;;;;;;;;;;;15.39;68.81;97489.83;116159;1184;69162;-74
2021/08/20 19:55:28;;;;;;;11.50;7.00;;;;;;;15.32;69.45;97491.02;116109;1185;67687;-74
2021/08/20 19:57:58;;;;;;;;;;;;;;;15.26;69.28;97493.17;116136;1184;58723;-74
2021/08/20 20:00:28;;;;;;;13.90;7.30;;;;;;;15.23;70.80;97492.30;116111;1182;58727;-74
2021/08/20 20:02:58;;;;;;;;;;;;;;;15.21;70.85;97494.15;116173;1181;70394;-74
2021/08/20 20:05:29;;;;;;;;;;;;;;;15.18;70.84;97495.14;116122;1184;67424;-74
2021/08/20 20:07:59;;;;;;;9.80;5.60;;;;;;;15.18;72.12;97494.22;116009;1185;69030;-73
2021/08/20 20:10:30;;;;;;;12.90;6.20;;;;;;;15.17;71.56;97497.52;116130;1183;58797;-73
2021/08/20 20:13:00;;;;;;;12.60;6.10;;;;;;;15.15;71.72;97495.16;116133;1184;58755;-74
2021/08/20 20:15:30;;;;;;;13.50;6.90;;;;;;;15.09;71.73;97500.82;116063;1182;68890;-74
2021/08/20 20:18:01;;;;;;;;;;;;;;;15.04;71.17;97502.09;116076;1181;69164;-74
2021/08/20 20:20:31;;;;;;;13.70;9.60;;;;;;;14.98;70.21;97506.85;116236;1184;69236;-72
2021/08/20 20:23:02;;;;;;;13.70;9.50;;;;;;;14.92;70.91;97504.09;116084;1184;58733;-72
2021/08/20 20:25:33;;;;;;;19.70;12.60;;;;;;;14.90;71.36;97509.59;116232;1183;58742;-74
2021/08/20 20:28:04;;;;;;;16.90;10.30;;;;;;;14.86;70.85;97509.77;116186;1184;70568;-73
2021/08/20 20:30:34;;;;;;;19.20;12.80;;;;;;;14.80;71.03;97511.46;116188;1183;68697;-74
2021/08/20 20:33:04;;;;;;;15.30;10.10;;;;;;;14.79;71.05;97516.36;116269;1184;68426;-74
2021/08/20 20:35:35;;;;;;;14.20;8.90;;;;;;;14.78;70.75;97515.23;116266;1182;58764;-73
2021/08/20 20:38:06;;;;;;;14.70;8.30;;;;;;;14.77;71.37;97516.65;116054;1180;58851;-74
2021/08/20 20:40:36;;;;;;;13.10;8.00;;;;;;;14.74;71.14;97518.77;116097;1184;70555;-73
2021/08/20 20:43:07;;;;;;;11.50;6.50;;;;;;;14.71;72.88;97519.34;116252;1179;68200;-74
2021/08/20 20:45:37;;;;;;;;;;;;;;;14.69;72.75;97521.81;116231;1180;68759;-73
2021/08/20 20:48:07;;;;;;;9.40;6.70;;;;;;;14.67;71.95;97525.66;116134;1184;58726;-73
2021/08/20 20:50:38;;;;;;;14.60;7.50;;;;;;;14.66;72.25;97530.02;116230;1181;58699;-73
2021/08/20 20:53:08;;;;;;;15.00;7.70;;;;;;;14.63;71.38;97530.00;116256;1179;69592;-72
2021/08/20 20:55:38;;;;;;;;;;;;;;;14.59;72.33;97528.09;116257;1184;68289;-73
2021/08/20 20:58:08;;;;;;;12.70;8.40;;;;;;;14.56;73.04;97529.61;116188;1184;69042;-72
2021/08/20 21:00:39;;;;;;;15.50;8.30;;;;;;;14.54;73.41;97528.16;116217;1179;58719;-72
2021/08/20 21:03:12;;;;;;;13.50;7.30;;;;;;;14.55;73.23;97528.84;116294;1181;58691;-73
2021/08/20 21:05:42;;;;;;;15.10;10.10;;;;;;;14.54;72.44;97530.70;116270;1179;69768;-72
2021/08/20 21:08:12;;;;;;;;;;;;;;;14.48;72.11;97534.20;116285;1179;69166;-73
2021/08/20 21:10:53;;;;;;;;;;;;;;;;;;;;;
2021/08/20 21:13:30;;;;;;;14.80;10.20;;;;;;;14.35;72.05;97540.02;116175;1179;58754;-73
2021/08/20 21:16:01;;;;;;;19.00;9.90;;;;;;;14.34;72.52;97540.38;116255;1179;58700;-73
2021/08/20 21:18:33;;;;;;;17.00;9.20;;;;;;;14.34;72.94;97539.15;116141;1184;70456;-74
2021/08/20 21:21:11;;;;;;;16.30;9.30;;;;;;;14.35;72.52;97543.05;116286;1184;68232;-73
2021/08/20 21:23:41;;;;;;;14.80;9.50;;;;;;;14.35;72.95;97545.09;116237;1184;69043;-73
2021/08/20 21:26:12;;;;;;;14.70;8.60;;;;;;;14.36;73.26;97549.44;116171;1181;58756;-73
2021/08/20 21:28:42;;;;;;;16.20;9.10;;;;;;;14.36;73.89;97546.40;116248;1179;58729;-73
2021/08/20 21:31:12;;;;;;;12.00;7.80;;;;;;;14.35;73.23;97544.70;116183;1184;70208;-73
2021/08/20 21:33:42;;;;;;;17.20;9.20;;;;;;;14.31;73.17;97542.55;116340;1184;69541;-73
2021/08/20 21:36:12;;;;;;;18.00;8.70;;;;;;;14.22;72.85;97543.82;116216;1183;68146;-73
2021/08/20 21:38:43;;;;;;;21.80;9.20;;;;;;;14.12;73.00;97547.08;116285;1179;58753;-73
2021/08/20 21:41:14;;;;;;;16.50;9.10;;;;;;;14.03;73.56;97543.02;116266;1184;58743;-73
2021/08/20 21:43:44;;;;;;;17.00;8.50;;;;;;;13.93;74.09;97547.31;116269;1179;69761;-73
2021/08/20 21:46:18;;;;;;;12.20;8.60;;;;;;;13.88;74.25;97546.41;116233;1179;69186;-73
2021/08/20 21:48:48;;;;;;;13.60;9.20;;;;;;;13.86;75.18;97549.38;116219;1179;67332;-73
2021/08/20 21:51:19;;;;;;;14.20;9.30;;;;;;;13.84;75.38;97545.41;116181;1184;58752;-73
2021/08/20 21:53:50;;;;;;;14.60;9.10;;;;;;;13.86;75.22;97541.66;116198;1179;58749;-73
2021/08/20 21:56:21;;;;;;;12.70;8.10;;;;;;;13.88;75.51;97541.02;116080;1181;69776;-73